Time;durP1;ratioP1;P1;durP2;ratioP2;P2;SDS_P1;SDS_P2;PMS_P1;PMS_P2;Temp;Humidity;BMP_temperature;BMP_pressure;BME280_temperature;BME280_humidity;BME280_pressure;Samples;Min_cycle;Max_cycle;Signal;HPM_P1;HPM_P2
2022/12/13 00:01:12;;;;;;;;;;;18.00;59.50;;;;;;5056834;28;1429;-71
2022/12/13 00:03:37;;;;;;;;;;;18.00;59.50;;;;;;5039891;28;876;-71
2022/12/13 00:06:04;;;;;;;;;;;18.00;59.50;;;;;;5057291;28;875;-71
2022/12/13 00:08:29;;;;;;;;;;;18.00;59.50;;;;;;5054321;28;827;-71
2022/12/13 00:10:59;;;;;;;;;;;18.00;59.50;;;;;;5023314;28;1895;-71
2022/12/13 00:13:24;;;;;;;;;;;18.00;59.50;;;;;;5041303;28;1408;-71
2022/12/13 00:15:56;;;;;;;;;;;18.00;59.50;;;;;;5056197;28;1058;-71
2022/12/13 00:18:22;;;;;;;;;;;18.00;59.50;;;;;;5053692;28;781;-71
2022/12/13 00:20:47;;;;;;;;;;;18.00;59.50;;;;;;5052241;28;1271;-70
2022/12/13 00:23:13;;;;;;;;;;;18.00;59.60;;;;;;5051880;28;1027;-71
2022/12/13 00:25:38;;;;;;;;;;;18.00;59.60;;;;;;5058752;28;810;-71
2022/12/13 00:28:04;;;;;;;;;;;18.00;59.60;;;;;;5054300;28;875;-70
2022/12/13 00:30:32;;;;;;;;;;;18.00;59.60;;;;;;5052836;28;1913;-70
2022/12/13 00:32:57;;;;;;;;;;;18.00;59.60;;;;;;5051197;28;1617;-71
2022/12/13 00:35:23;;;;;;;;;;;18.00;59.60;;;;;;5052557;28;788;-71
2022/12/13 00:37:48;;;;;;;;;;;18.00;59.60;;;;;;5055844;28;1007;-71
2022/12/13 00:40:14;;;;;;;;;;;18.00;59.60;;;;;;5054537;28;1397;-70
2022/12/13 00:42:39;;;;;;;;;;;18.00;59.60;;;;;;5036027;28;896;-71
2022/12/13 00:45:05;;;;;;;;;;;17.90;59.60;;;;;;5051511;28;752;-72
2022/12/13 00:47:30;;;;;;;;;;;17.90;59.60;;;;;;5056498;28;915;-72
2022/12/13 00:49:56;;;;;;;;;;;17.90;59.60;;;;;;5049484;28;1992;-71
2022/12/13 00:52:21;;;;;;;;;;;17.90;59.60;;;;;;5050466;28;880;-71
2022/12/13 00:54:47;;;;;;;;;;;17.90;59.60;;;;;;5054045;28;1042;-72
2022/12/13 00:57:12;;;;;;;;;;;17.90;59.60;;;;;;5056137;28;796;-69
2022/12/13 00:59:38;;;;;;;;;;;17.90;59.60;;;;;;5037670;28;1338;-70
2022/12/13 01:02:03;;;;;;;;;;;17.90;59.60;;;;;;5040461;28;900;-70
2022/12/13 01:04:29;;;;;;;;;;;17.90;59.60;;;;;;5052445;28;1018;-70
2022/12/13 01:06:54;;;;;;;;;;;17.90;59.70;;;;;;5054424;28;824;-70
2022/12/13 01:09:21;;;;;;;;;;;17.90;59.70;;;;;;5039088;28;2174;-70
2022/12/13 01:11:46;;;;;;;;;;;17.90;59.60;;;;;;5040557;28;1275;-70
2022/12/13 01:14:12;;;;;;;;;;;17.90;59.70;;;;;;5023193;28;1348;-70
2022/12/13 01:16:37;;;;;;;;;;;17.90;59.70;;;;;;5052545;28;1332;-70
2022/12/13 01:19:03;;;;;;;;;;;17.90;59.70;;;;;;5056646;28;796;-70
2022/12/13 01:21:28;;;;;;;;;;;17.90;59.70;;;;;;5053014;28;1361;-70
2022/12/13 01:23:56;;;;;;;;;;;17.90;59.70;;;;;;5051565;28;1261;-70
2022/12/13 01:26:21;;;;;;;;;;;17.90;59.70;;;;;;5039438;28;1419;-70
2022/12/13 01:28:47;;;;;;;;;;;17.90;59.70;;;;;;5052683;28;856;-70
2022/12/13 01:31:13;;;;;;;;;;;17.90;59.70;;;;;;5040180;28;1992;-70
2022/12/13 01:33:39;;;;;;;;;;;17.90;59.70;;;;;;5053620;28;895;-70
2022/12/13 01:36:05;;;;;;;;;;;17.90;59.70;;;;;;5023964;28;939;-71
2022/12/13 01:38:30;;;;;;;;;;;17.90;59.70;;;;;;5039863;28;878;-71
2022/12/13 01:40:59;;;;;;;;;;;17.90;59.70;;;;;;5038857;28;1253;-73
2022/12/13 01:43:25;;;;;;;;;;;17.90;59.70;;;;;;5053039;28;939;-72
2022/12/13 01:45:51;;;;;;;;;;;17.90;59.70;;;;;;5050808;28;969;-72
2022/12/13 01:48:18;;;;;;;;;;;17.90;59.80;;;;;;5049150;28;855;-72
2022/12/13 01:50:47;;;;;;;;;;;17.90;59.80;;;;;;5055369;28;1906;-72
2022/12/13 01:53:20;;;;;;;;;;;17.90;59.80;;;;;;5037703;28;847;-70
2022/12/13 01:55:46;;;;;;;;;;;17.90;59.80;;;;;;5039667;28;946;-72
2022/12/13 01:58:12;;;;;;;;;;;17.90;59.80;;;;;;5044846;28;844;-71
2022/12/13 02:00:37;;;;;;;;;;;17.90;59.80;;;;;;5045412;28;1347;-72
2022/12/13 02:03:02;;;;;;;;;;;17.90;59.80;;;;;;5058717;28;777;-71
2022/12/13 02:05:41;;;;;;;;;;;17.90;59.80;;;;;;5035801;28;884;-71
2022/12/13 02:08:07;;;;;;;;;;;17.80;59.70;;;;;;5050001;28;951;-71
2022/12/13 02:10:32;;;;;;;;;;;17.80;59.80;;;;;;5021783;28;1903;-71
2022/12/13 02:12:58;;;;;;;;;;;17.80;59.80;;;;;;5052020;28;1373;-69
2022/12/13 02:15:23;;;;;;;;;;;17.80;59.80;;;;;;5051895;28;1247;-71
2022/12/13 02:17:59;;;;;;;;;;;17.80;59.80;;;;;;5035540;28;1578;-71
2022/12/13 02:20:43;;;;;;;;;;;17.80;59.80;;;;;;5040993;28;1311;-71
2022/12/13 02:23:41;;;;;;;;;;;17.80;59.80;;;;;;5044885;28;1399;-71
2022/12/13 02:26:24;;;;;;;;;;;17.80;59.80;;;;;;5025103;28;1273;-71
2022/12/13 02:28:56;;;;;;;;;;;17.90;59.90;;;;;;5054937;28;995;-70
2022/12/13 02:31:51;;;;;;;;;;;17.90;59.80;;;;;;5051258;28;1971;-70
2022/12/13 02:34:26;;;;;;;;;;;17.80;59.80;;;;;;5039369;28;1254;-70
2022/12/13 02:37:02;;;;;;;;;;;17.80;59.80;;;;;;5050758;28;935;-71
2022/12/13 02:39:29;;;;;;;;;;;17.80;59.80;;;;;;5038410;28;858;-71
2022/12/13 02:42:03;;;;;;;;;;;17.80;59.80;;;;;;5039682;28;1203;-71
2022/12/13 02:44:30;;;;;;;;;;;17.80;59.80;;;;;;5039991;28;892;-71
2022/12/13 02:47:16;;;;;;;;;;;17.80;59.80;;;;;;5032920;28;903;-70
2022/12/13 02:49:42;;;;;;;;;;;17.80;59.90;;;;;;5038026;28;1906;-70
2022/12/13 02:52:08;;;;;;;;;;;17.80;59.80;;;;;;5035333;28;1619;-69
2022/12/13 02:54:34;;;;;;;;;;;17.80;59.90;;;;;;5052180;28;902;-71
2022/12/13 02:56:59;;;;;;;;;;;17.80;59.80;;;;;;5049512;28;825;-71
2022/12/13 02:59:26;;;;;;;;;;;17.80;59.80;;;;;;5051993;28;887;-71
2022/12/13 03:02:01;;;;;;;;;;;17.80;59.90;;;;;;5052277;28;1275;-71
2022/12/13 03:04:35;;;;;;;;;;;17.80;59.80;;;;;;5056019;28;1155;-71
2022/12/13 03:07:04;;;;;;;;;;;17.80;59.90;;;;;;5053428;28;876;-71
2022/12/13 03:09:32;;;;;;;;;;;17.80;59.90;;;;;;5051247;28;2028;-71
2022/12/13 03:15:02;;;;;;;;;;;17.80;59.90;;;;;;5045341;28;1266;-71
2022/12/13 03:17:28;;;;;;;;;;;17.80;59.90;;;;;;5032917;28;1246;-71
2022/12/13 03:19:54;;;;;;;;;;;17.80;59.90;;;;;;5046459;28;1264;-71
2022/12/13 03:22:19;;;;;;;;;;;17.80;59.90;;;;;;5024118;28;1432;-71
2022/12/13 03:24:45;;;;;;;;;;;17.80;59.90;;;;;;5050245;28;939;-71
2022/12/13 03:27:10;;;;;;;;;;;17.80;59.90;;;;;;5056748;28;947;-70
2022/12/13 03:29:36;;;;;;;;;;;17.80;59.90;;;;;;5041960;28;1902;-71
2022/12/13 03:32:02;;;;;;;;;;;17.80;59.90;;;;;;5054276;28;1355;-71
2022/12/13 03:34:28;;;;;;;;;;;17.80;59.90;;;;;;5041500;28;1305;-71
2022/12/13 03:36:53;;;;;;;;;;;17.80;59.90;;;;;;5040968;28;939;-71
2022/12/13 03:39:18;;;;;;;;;;;17.80;59.90;;;;;;5055331;28;1010;-71
2022/12/13 03:41:44;;;;;;;;;;;17.80;59.90;;;;;;5042139;28;1309;-71
2022/12/13 03:44:09;;;;;;;;;;;17.80;59.90;;;;;;5039510;28;883;-71
2022/12/13 03:46:35;;;;;;;;;;;17.80;59.90;;;;;;5038841;28;1011;-72
2022/12/13 03:49:00;;;;;;;;;;;17.80;59.90;;;;;;5054933;28;797;-71
2022/12/13 03:51:26;;;;;;;;;;;17.80;60.00;;;;;;5059104;28;1914;-71
2022/12/13 03:53:51;;;;;;;;;;;17.80;60.00;;;;;;5057404;28;1118;-71
2022/12/13 03:56:17;;;;;;;;;;;17.80;59.90;;;;;;5057226;28;893;-71
2022/12/13 03:58:42;;;;;;;;;;;17.80;60.00;;;;;;5056300;28;1134;-69
2022/12/13 04:01:08;;;;;;;;;;;17.80;59.90;;;;;;5054858;28;1270;-68
2022/12/13 04:03:34;;;;;;;;;;;17.80;60.00;;;;;;5054920;28;891;-69
2022/12/13 04:06:00;;;;;;;;;;;17.80;60.00;;;;;;5056251;28;828;-69
2022/12/13 04:08:25;;;;;;;;;;;17.80;59.90;;;;;;5053901;28;967;-69
2022/12/13 04:10:51;;;;;;;;;;;17.80;59.90;;;;;;5054623;28;1969;-70
2022/12/13 04:13:31;;;;;;;;;;;17.80;59.90;;;;;;5057525;28;1024;-70
2022/12/13 04:15:56;;;;;;;;;;;17.80;59.90;;;;;;5064438;28;1022;-71
2022/12/13 04:18:22;;;;;;;;;;;17.80;59.80;;;;;;5062623;28;904;-70
2022/12/13 04:20:47;;;;;;;;;;;17.80;59.80;;;;;;5050507;28;1689;-70
2022/12/13 04:23:13;;;;;;;;;;;17.80;59.80;;;;;;5068526;28;824;-71
2022/12/13 04:25:39;;;;;;;;;;;17.80;59.80;;;;;;5045345;28;1013;-71
2022/12/13 04:28:04;;;;;;;;;;;17.80;59.80;;;;;;5058814;28;807;-71
2022/12/13 04:30:30;;;;;;;;;;;17.80;59.80;;;;;;5047628;28;1965;-70
2022/12/13 04:32:55;;;;;;;;;;;17.90;59.80;;;;;;5059471;28;1081;-69
2022/12/13 04:35:21;;;;;;;;;;;17.80;59.80;;;;;;5057935;28;1026;-69
2022/12/13 04:37:46;;;;;;;;;;;17.80;59.80;;;;;;5042992;28;1074;-70
2022/12/13 04:40:12;;;;;;;;;;;17.90;59.80;;;;;;5059432;28;1322;-69
2022/12/13 04:42:37;;;;;;;;;;;17.80;59.80;;;;;;5052648;28;931;-70
2022/12/13 04:45:03;;;;;;;;;;;17.80;59.70;;;;;;5053278;28;1089;-70
2022/12/13 04:47:28;;;;;;;;;;;17.80;59.80;;;;;;5040453;28;1601;-69
2022/12/13 04:49:54;;;;;;;;;;;17.80;59.80;;;;;;5055536;28;1890;-69
2022/12/13 04:52:19;;;;;;;;;;;17.80;59.80;;;;;;5054665;28;875;-72
2022/12/13 04:54:45;;;;;;;;;;;17.80;59.80;;;;;;5043375;28;878;-72
2022/12/13 04:57:11;;;;;;;;;;;17.80;60.50;;;;;;5054053;28;895;-73
2022/12/13 04:59:37;;;;;;;;;;;17.80;59.80;;;;;;5055157;28;875;-70
2022/12/13 05:02:03;;;;;;;;;;;17.80;59.80;;;;;;5037290;28;935;-70
2022/12/13 05:04:29;;;;;;;;;;;17.80;59.80;;;;;;5038840;28;848;-72
2022/12/13 05:06:54;;;;;;;;;;;17.80;59.80;;;;;;5036696;28;896;-70
2022/12/13 05:09:20;;;;;;;;;;;17.80;59.80;;;;;;5053802;28;855;-69
2022/12/13 05:11:45;;;;;;;;;;;17.80;59.90;;;;;;5052948;28;1967;-70
2022/12/13 05:14:11;;;;;;;;;;;17.80;59.80;;;;;;5056409;28;1395;-69
2022/12/13 05:16:36;;;;;;;;;;;17.80;59.70;;;;;;5055790;28;1248;-68
2022/12/13 05:19:01;;;;;;;;;;;17.90;59.70;;;;;;5052598;28;920;-70
2022/12/13 05:21:27;;;;;;;;;;;17.90;59.70;;;;;;5051805;28;1284;-70
2022/12/13 05:23:52;;;;;;;;;;;17.90;59.60;;;;;;5057838;28;998;-69
2022/12/13 05:26:18;;;;;;;;;;;17.90;59.50;;;;;;5052270;28;801;-70
2022/12/13 05:28:43;;;;;;;;;;;18.00;59.50;;;;;;5053163;28;915;-71
2022/12/13 05:31:09;;;;;;;;;;;18.00;59.40;;;;;;5050356;28;1967;-70
2022/12/13 05:33:35;;;;;;;;;;;18.00;59.30;;;;;;5039254;28;987;-70
2022/12/13 05:36:00;;;;;;;;;;;18.00;59.30;;;;;;5053854;28;1069;-70
2022/12/13 05:38:26;;;;;;;;;;;18.10;59.20;;;;;;5051033;28;860;-69
2022/12/13 05:40:51;;;;;;;;;;;18.10;59.20;;;;;;5053383;28;1345;-70
2022/12/13 05:43:17;;;;;;;;;;;18.10;59.10;;;;;;5056487;28;912;-69
2022/12/13 05:45:42;;;;;;;;;;;18.10;59.00;;;;;;5053068;28;1379;-69
2022/12/13 05:48:09;;;;;;;;;;;18.10;59.00;;;;;;5041854;28;907;-69
2022/12/13 05:50:34;;;;;;;;;;;18.20;59.00;;;;;;5054269;28;1963;-69
2022/12/13 05:53:00;;;;;;;;;;;18.20;58.90;;;;;;5052325;28;840;-70
2022/12/13 05:55:26;;;;;;;;;;;18.20;58.90;;;;;;5038903;28;1354;-70
2022/12/13 05:57:51;;;;;;;;;;;18.20;58.90;;;;;;5048886;28;1130;-70
2022/12/13 06:00:17;;;;;;;;;;;18.20;58.80;;;;;;5052067;28;1272;-71
2022/12/13 06:02:42;;;;;;;;;;;18.20;58.80;;;;;;5039437;28;923;-71
2022/12/13 06:05:11;;;;;;;;;;;18.20;58.70;;;;;;5038669;28;983;-70
2022/12/13 06:07:36;;;;;;;;;;;18.20;58.70;;;;;;5050893;28;832;-71
2022/12/13 06:10:02;;;;;;;;;;;18.30;58.80;;;;;;5051461;28;1894;-70
2022/12/13 06:12:28;;;;;;;;;;;18.20;58.70;;;;;;5039172;28;1413;-69
2022/12/13 06:14:53;;;;;;;;;;;18.20;58.70;;;;;;5054019;28;917;-71
2022/12/13 06:17:20;;;;;;;;;;;18.30;58.70;;;;;;5053919;28;1321;-69
2022/12/13 06:19:46;;;;;;;;;;;18.20;58.60;;;;;;5039619;28;1284;-69
2022/12/13 06:22:11;;;;;;;;;;;18.30;58.70;;;;;;5053494;28;865;-70
2022/12/13 06:24:37;;;;;;;;;;;18.30;58.60;;;;;;5049012;28;1070;-70
2022/12/13 06:27:04;;;;;;;;;;;18.30;58.60;;;;;;5051722;28;821;-70
2022/12/13 06:29:29;;;;;;;;;;;18.30;58.60;;;;;;5047187;28;929;-70
2022/12/13 06:31:56;;;;;;;;;;;18.30;58.60;;;;;;5053401;28;1969;-70
2022/12/13 06:34:21;;;;;;;;;;;18.30;58.60;;;;;;5038316;28;789;-71
2022/12/13 06:36:47;;;;;;;;;;;18.30;58.60;;;;;;5040160;28;947;-72
2022/12/13 06:39:14;;;;;;;;;;;18.30;58.60;;;;;;5051742;28;843;-72
2022/12/13 06:41:39;;;;;;;;;;;18.30;58.60;;;;;;5055355;28;1373;-71
2022/12/13 06:44:05;;;;;;;;;;;18.30;58.60;;;;;;5038040;28;821;-71
2022/12/13 06:46:31;;;;;;;;;;;18.30;58.60;;;;;;5052978;28;896;-71
2022/12/13 06:48:56;;;;;;;;;;;18.30;58.60;;;;;;5043574;28;928;-70
2022/12/13 06:51:21;;;;;;;;;;;18.30;58.60;;;;;;5057645;28;1902;-71
2022/12/13 06:53:47;;;;;;;;;;;18.30;58.60;;;;;;5054724;28;870;-70
2022/12/13 06:56:12;;;;;;;;;;;18.30;58.60;;;;;;5059227;28;864;-69
2022/12/13 06:58:38;;;;;;;;;;;18.30;58.60;;;;;;5043498;28;889;-68
2022/12/13 07:01:07;;;;;;;;;;;18.30;58.70;;;;;;5020863;28;2068;-70
2022/12/13 07:03:33;;;;;;;;;;;18.30;58.70;;;;;;5056504;28;1810;-69
2022/12/13 07:05:59;;;;;;;;;;;18.30;58.60;;;;;;5038228;28;1966;-70
2022/12/13 07:08:24;;;;;;;;;;;18.30;58.60;;;;;;5042248;28;1470;-68
2022/12/13 07:10:52;;;;;;;;;;;18.30;58.60;;;;;;5056757;28;1905;-69
2022/12/13 07:13:19;;;;;;;;;;;18.30;58.60;;;;;;5040421;28;1418;-70
2022/12/13 07:15:45;;;;;;;;;;;18.30;58.70;;;;;;5056311;28;1576;-70
2022/12/13 07:18:10;;;;;;;;;;;18.30;58.70;;;;;;5053185;28;1282;-69
2022/12/13 07:20:37;;;;;;;;;;;18.30;58.70;;;;;;5054355;28;1335;-69
2022/12/13 07:23:03;;;;;;;;;;;18.30;58.70;;;;;;5052279;28;1069;-69
2022/12/13 07:25:28;;;;;;;;;;;18.30;58.80;;;;;;5054716;28;1031;-69
2022/12/13 07:28:04;;;;;;;;;;;18.30;58.80;;;;;;5026313;28;912;-70
2022/12/13 07:30:33;;;;;;;;;;;18.20;58.70;;;;;;5026518;28;1906;-69
2022/12/13 07:32:59;;;;;;;;;;;18.20;58.70;;;;;;5052450;28;1006;-69
2022/12/13 07:35:25;;;;;;;;;;;18.20;58.80;;;;;;5059933;28;935;-69
2022/12/13 07:37:50;;;;;;;;;;;18.20;58.80;;;;;;5034946;28;4027;-70
2022/12/13 07:40:16;;;;;;;;;;;18.20;58.80;;;;;;5015409;28;4100;-70
2022/12/13 07:42:47;;;;;;;;;;;18.20;58.80;;;;;;5029121;28;4546;-70
2022/12/13 07:45:13;;;;;;;;;;;18.20;58.80;;;;;;5054656;28;1070;-69
2022/12/13 07:47:38;;;;;;;;;;;18.20;58.80;;;;;;5056727;28;920;-70
2022/12/13 07:50:05;;;;;;;;;;;18.20;58.80;;;;;;5052897;28;1906;-71
2022/12/13 07:52:30;;;;;;;;;;;18.20;58.90;;;;;;5053266;28;867;-73
2022/12/13 07:54:56;;;;;;;;;;;18.20;58.90;;;;;;5055009;28;893;-68
2022/12/13 07:57:21;;;;;;;;;;;18.20;58.90;;;;;;5056513;28;1058;-71
2022/12/13 07:59:47;;;;;;;;;;;18.20;58.90;;;;;;5052261;28;1252;-70
2022/12/13 08:02:12;;;;;;;;;;;18.20;59.00;;;;;;5051862;28;1419;-69
2022/12/13 08:04:38;;;;;;;;;;;18.20;58.90;;;;;;5059943;28;1018;-71
2022/12/13 08:07:07;;;;;;;;;;;18.10;58.90;;;;;;5054492;28;1070;-70
2022/12/13 08:09:33;;;;;;;;;;;18.20;59.00;;;;;;5041252;28;840;-69
2022/12/13 08:11:59;;;;;;;;;;;18.10;58.90;;;;;;5024089;28;1952;-70
2022/12/13 08:14:25;;;;;;;;;;;18.20;59.00;;;;;;5053393;28;1284;-69
2022/12/13 08:16:50;;;;;;;;;;;18.10;58.90;;;;;;5055697;28;1328;-69
2022/12/13 08:19:15;;;;;;;;;;;18.20;59.00;;;;;;5058529;28;1098;-69
2022/12/13 08:21:41;;;;;;;;;;;18.20;59.00;;;;;;5054393;28;1973;-69
2022/12/13 08:24:07;;;;;;;;;;;18.20;59.00;;;;;;5053775;28;1911;-71
2022/12/13 08:26:32;;;;;;;;;;;18.10;58.90;;;;;;5053906;28;878;-70
2022/12/13 08:28:58;;;;;;;;;;;18.20;58.90;;;;;;5037363;28;1356;-71
2022/12/13 08:31:24;;;;;;;;;;;18.20;58.90;;;;;;5053960;28;1897;-70
2022/12/13 08:33:49;;;;;;;;;;;18.20;58.90;;;;;;5039102;28;1131;-71
2022/12/13 08:36:15;;;;;;;;;;;18.20;58.90;;;;;;5055003;28;998;-71
2022/12/13 08:38:41;;;;;;;;;;;18.20;58.80;;;;;;5050349;28;849;-70
2022/12/13 08:41:07;;;;;;;;;;;18.20;58.80;;;;;;5052121;28;1319;-70
2022/12/13 08:43:33;;;;;;;;;;;18.20;58.80;;;;;;5055195;28;828;-70
2022/12/13 08:45:58;;;;;;;;;;;18.20;58.80;;;;;;5051759;28;943;-70
2022/12/13 08:48:24;;;;;;;;;;;18.20;58.70;;;;;;5038548;28;805;-71
2022/12/13 08:50:49;;;;;;;;;;;18.20;58.70;;;;;;5053151;28;1965;-70
2022/12/13 08:53:15;;;;;;;;;;;18.20;58.70;;;;;;5049789;28;871;-71
2022/12/13 08:55:40;;;;;;;;;;;18.30;58.70;;;;;;5052047;28;1069;-71
2022/12/13 08:58:07;;;;;;;;;;;18.30;58.70;;;;;;5041402;28;1642;-72
2022/12/13 09:00:33;;;;;;;;;;;18.30;58.60;;;;;;5050060;28;1311;-71
2022/12/13 09:02:58;;;;;;;;;;;18.30;58.60;;;;;;5038633;28;884;-71
2022/12/13 09:05:24;;;;;;;;;;;18.30;58.60;;;;;;5050920;28;878;-72
2022/12/13 09:07:53;;;;;;;;;;;18.30;58.60;;;;;;5054355;28;883;-71
2022/12/13 09:10:19;;;;;;;;;;;18.30;58.50;;;;;;5052980;28;1894;-72
2022/12/13 09:12:45;;;;;;;;;;;18.30;58.50;;;;;;5051466;28;1323;-73
2022/12/13 09:15:10;;;;;;;;;;;18.30;58.50;;;;;;5051671;28;1266;-72
2022/12/13 09:17:36;;;;;;;;;;;18.30;58.50;;;;;;5054178;28;1354;-72
2022/12/13 09:20:01;;;;;;;;;;;18.30;58.40;;;;;;5055132;28;1286;-72
2022/12/13 09:22:27;;;;;;;;;;;18.40;58.50;;;;;;5055681;28;923;-72
2022/12/13 09:24:52;;;;;;;;;;;18.40;58.50;;;;;;5055904;28;884;-73
2022/12/13 09:27:18;;;;;;;;;;;18.40;58.50;;;;;;5055811;28;1361;-73
2022/12/13 09:29:45;;;;;;;;;;;18.30;58.40;;;;;;5051939;28;1910;-72
2022/12/13 09:32:11;;;;;;;;;;;18.40;58.50;;;;;;5051857;28;856;-73
2022/12/13 09:34:36;;;;;;;;;;;18.30;58.40;;;;;;5053764;28;883;-73
2022/12/13 09:37:02;;;;;;;;;;;18.40;58.50;;;;;;5053268;28;816;-73
2022/12/13 09:39:28;;;;;;;;;;;18.40;58.40;;;;;;5055951;28;813;-73
2022/12/13 09:41:54;;;;;;;;;;;18.30;58.40;;;;;;5035358;28;1421;-73
2022/12/13 09:44:23;;;;;;;;;;;18.30;58.40;;;;;;5027743;28;804;-72
2022/12/13 09:46:48;;;;;;;;;;;18.40;58.40;;;;;;5037637;28;813;-73
2022/12/13 09:49:20;;;;;;;;;;;18.40;58.40;;;;;;5034832;28;947;-72
2022/12/13 09:51:50;;;;;;;;;;;18.40;58.40;;;;;;5052837;28;1910;-73
2022/12/13 09:54:17;;;;;;;;;;;18.40;58.40;;;;;;5023029;28;871;-73
2022/12/13 09:56:42;;;;;;;;;;;18.40;58.40;;;;;;5040481;28;835;-73
2022/12/13 09:59:10;;;;;;;;;;;18.40;58.40;;;;;;5033610;28;797;-73
2022/12/13 10:01:35;;;;;;;;;;;18.40;58.30;;;;;;5036518;28;1243;-73
2022/12/13 10:04:01;;;;;;;;;;;18.40;58.40;;;;;;5036763;28;778;-73
2022/12/13 10:06:30;;;;;;;;;;;18.40;58.30;;;;;;5037825;28;891;-73
2022/12/13 10:08:56;;;;;;;;;;;18.40;58.30;;;;;;5050218;28;1109;-73
2022/12/13 10:11:21;;;;;;;;;;;18.40;58.30;;;;;;5037610;28;2151;-72
2022/12/13 10:13:58;;;;;;;;;;;18.40;58.30;;;;;;5034078;28;2021;-72
2022/12/13 10:16:27;;;;;;;;;;;18.40;58.30;;;;;;5039985;28;1365;-72
2022/12/13 10:18:53;;;;;;;;;;;18.40;58.40;;;;;;5052178;28;857;-72
2022/12/13 10:21:21;;;;;;;;;;;18.40;58.40;;;;;;5053209;28;1258;-72
2022/12/13 10:23:46;;;;;;;;;;;18.40;58.40;;;;;;5061429;28;969;-72
2022/12/13 10:26:12;;;;;;;;;;;18.40;58.30;;;;;;5056740;28;1006;-71
2022/12/13 10:28:37;;;;;;;;;;;18.40;58.40;;;;;;5044622;28;923;-73
2022/12/13 10:31:03;;;;;;;;;;;18.40;58.40;;;;;;5036069;28;1918;-70
2022/12/13 10:33:29;;;;;;;;;;;18.40;58.40;;;;;;5058067;28;867;-71
2022/12/13 10:36:07;;;;;;;;;;;18.40;58.40;;;;;;5044075;28;812;-71
2022/12/13 10:38:37;;;;;;;;;;;18.40;58.40;;;;;;5054750;28;924;-70
2022/12/13 10:41:03;;;;;;;;;;;18.40;58.30;;;;;;5059153;28;1342;-70
2022/12/13 10:43:33;;;;;;;;;;;18.40;58.40;;;;;;5026544;28;1481;-70
2022/12/13 10:45:59;;;;;;;;;;;18.40;58.30;;;;;;5053101;28;916;-70
2022/12/13 10:48:37;;;;;;;;;;;18.40;58.30;;;;;;5054159;28;934;-70
2022/12/13 10:51:04;;;;;;;;;;;18.40;58.30;;;;;;5055376;28;1906;-70
2022/12/13 10:53:33;;;;;;;;;;;18.40;58.30;;;;;;5038105;28;868;-70
2022/12/13 10:55:59;;;;;;;;;;;18.40;58.30;;;;;;5027678;28;801;-70
2022/12/13 10:58:32;;;;;;;;;;;18.40;58.30;;;;;;5041442;28;799;-70
2022/12/13 11:00:58;;;;;;;;;;;18.40;58.30;;;;;;5053517;28;1299;-70
2022/12/13 11:03:28;;;;;;;;;;;18.40;58.30;;;;;;5038918;28;1295;-70
2022/12/13 11:06:03;;;;;;;;;;;18.40;58.30;;;;;;5038339;28;844;-71
2022/12/13 11:08:29;;;;;;;;;;;18.40;58.30;;;;;;5022901;28;843;-70
2022/12/13 11:10:55;;;;;;;;;;;18.40;58.30;;;;;;5055634;28;1976;-70
2022/12/13 11:13:30;;;;;;;;;;;18.40;58.30;;;;;;5059014;28;1303;-71
2022/12/13 11:15:55;;;;;;;;;;;18.40;58.30;;;;;;5041115;28;1341;-70
2022/12/13 11:18:22;;;;;;;;;;;18.40;58.30;;;;;;5038676;28;895;-70
2022/12/13 11:20:58;;;;;;;;;;;18.40;58.30;;;;;;5042995;28;1387;-72
2022/12/13 11:23:28;;;;;;;;;;;18.40;58.30;;;;;;5026827;28;896;-71
2022/12/13 11:25:54;;;;;;;;;;;18.40;58.30;;;;;;5034904;28;1318;-72
2022/12/13 11:28:39;;;;;;;;;;;18.40;58.30;;;;;;5039543;28;1646;-69
2022/12/13 11:31:22;;;;;;;;;;;18.40;58.30;;;;;;5052477;28;1983;-70
2022/12/13 11:33:51;;;;;;;;;;;18.40;58.30;;;;;;5038917;28;1200;-71
2022/12/13 11:36:25;;;;;;;;;;;18.40;58.30;;;;;;5057296;28;855;-71
2022/12/13 11:39:13;;;;;;;;;;;18.40;58.30;;;;;;5053733;28;895;-72
2022/12/13 11:41:44;;;;;;;;;;;18.40;58.30;;;;;;5055791;28;1359;-71
2022/12/13 11:44:17;;;;;;;;;;;18.40;58.30;;;;;;5040505;28;891;-72
2022/12/13 11:46:50;;;;;;;;;;;18.40;58.30;;;;;;5042665;28;1101;-69
2022/12/13 11:49:17;;;;;;;;;;;18.40;58.30;;;;;;5058797;28;868;-69
2022/12/13 11:51:45;;;;;;;;;;;18.40;58.30;;;;;;5037267;28;1907;-70
2022/12/13 11:54:19;;;;;;;;;;;18.40;58.40;;;;;;5052792;28;907;-70
2022/12/13 11:56:45;;;;;;;;;;;18.40;58.30;;;;;;5025382;28;911;-70
2022/12/13 11:59:16;;;;;;;;;;;18.40;58.30;;;;;;5042623;28;1485;-70
2022/12/13 12:01:45;;;;;;;;;;;18.40;58.30;;;;;;5056567;28;1261;-69
2022/12/13 12:04:22;;;;;;;;;;;18.40;58.30;;;;;;5037799;28;816;-70
2022/12/13 12:07:06;;;;;;;;;;;18.40;58.30;;;;;;5039772;28;1235;-70
2022/12/13 12:09:32;;;;;;;;;;;18.40;58.30;;;;;;5051969;28;926;-70
2022/12/13 12:12:09;;;;;;;;;;;18.40;58.30;;;;;;5043383;28;1906;-70
2022/12/13 12:14:40;;;;;;;;;;;18.40;58.30;;;;;;5040385;28;1461;-70
2022/12/13 12:17:08;;;;;;;;;;;18.40;58.40;;;;;;5039278;28;1309;-70
2022/12/13 12:19:34;;;;;;;;;;;18.40;58.40;;;;;;5040872;28;804;-69
2022/12/13 12:22:18;;;;;;;;;;;18.40;58.30;;;;;;5043156;28;1164;-69
2022/12/13 12:24:47;;;;;;;;;;;18.40;58.30;;;;;;5057830;28;808;-69
2022/12/13 12:27:28;;;;;;;;;;;18.40;58.40;;;;;;5050513;28;1203;-70
2022/12/13 12:30:00;;;;;;;;;;;18.40;58.40;;;;;;5052907;28;1906;-70
2022/12/13 12:32:37;;;;;;;;;;;18.40;58.30;;;;;;5042180;28;1503;-70
2022/12/13 12:35:11;;;;;;;;;;;18.40;58.40;;;;;;5053970;28;830;-70
2022/12/13 12:37:45;;;;;;;;;;;18.40;58.30;;;;;;5039450;28;834;-69
2022/12/13 12:40:31;;;;;;;;;;;18.40;58.30;;;;;;5040881;28;1296;-70
2022/12/13 12:43:05;;;;;;;;;;;18.40;58.40;;;;;;5052686;28;942;-70
2022/12/13 12:45:37;;;;;;;;;;;18.40;58.30;;;;;;5057387;28;958;-71
2022/12/13 12:48:15;;;;;;;;;;;18.40;58.40;;;;;;5037881;28;899;-72
2022/12/13 12:50:55;;;;;;;;;;;18.40;58.30;;;;;;5050247;28;1894;-70
2022/12/13 12:53:24;;;;;;;;;;;18.40;58.30;;;;;;5035836;28;938;-70
2022/12/13 12:55:50;;;;;;;;;;;18.40;58.30;;;;;;5054059;28;924;-69
2022/12/13 12:58:26;;;;;;;;;;;18.40;58.30;;;;;;5025508;28;1152;-69
2022/12/13 13:00:58;;;;;;;;;;;18.40;58.30;;;;;;5040314;28;1255;-69
2022/12/13 13:03:24;;;;;;;;;;;18.40;58.30;;;;;;5055930;28;989;-69
2022/12/13 13:05:57;;;;;;;;;;;18.40;58.30;;;;;;5074746;27;1313;-69
2022/12/13 13:08:42;;;;;;;;;;;18.40;58.30;;;;;;5075192;28;1386;-69
2022/12/13 13:11:07;;;;;;;;;;;18.40;58.40;;;;;;5076578;28;1254;-68
2022/12/13 13:13:44;;;;;;;;;;;18.40;58.30;;;;;;5059440;28;1331;-69
2022/12/13 13:16:29;;;;;;;;;;;18.40;58.30;;;;;;5076036;28;1246;-69
2022/12/13 13:19:01;;;;;;;;;;;18.40;58.30;;;;;;5061088;28;1395;-69
2022/12/13 13:21:30;;;;;;;;;;;18.40;58.30;;;;;;5074467;28;1497;-69
2022/12/13 13:24:08;;;;;;;;;;;18.40;58.30;;;;;;5073387;28;1965;-69
2022/12/13 13:26:37;;;;;;;;;;;18.40;58.30;;;;;;5073420;28;848;-69
2022/12/13 13:29:27;;;;;;;;;;;18.40;58.30;;;;;;5055955;28;1422;-68
2022/12/13 13:31:52;;;;;;;;;;;18.40;58.30;;;;;;5073542;28;1385;-69
2022/12/13 13:34:20;;;;;;;;;;;18.40;58.30;;;;;;5074811;28;875;-69
2022/12/13 13:36:46;;;;;;;;;;;18.40;58.30;;;;;;5083156;28;1006;-68
2022/12/13 13:39:15;;;;;;;;;;;18.40;58.30;;;;;;5074161;28;848;-70
2022/12/13 13:41:53;;;;;;;;;;;18.40;58.40;;;;;;5076055;28;1183;-70
2022/12/13 13:44:30;;;;;;;;;;;18.40;58.40;;;;;;5072330;28;1891;-70
2022/12/13 13:47:09;;;;;;;;;;;18.40;58.40;;;;;;5075060;28;1342;-70
2022/12/13 13:49:34;;;;;;;;;;;18.30;58.40;;;;;;5065598;28;1471;-69
2022/12/13 13:52:00;;;;;;;;;;;18.30;58.40;;;;;;5076080;28;2137;-68
2022/12/13 13:54:44;;;;;;;;;;;18.30;58.40;;;;;;5074197;28;1939;-69
2022/12/13 13:57:19;;;;;;;;;;;18.30;58.40;;;;;;5069417;28;1413;-68
2022/12/13 14:00:05;;;;;;;;;;;18.30;58.40;;;;;;5069842;28;1841;-69
2022/12/13 14:03:03;;;;;;;;;;;18.40;58.50;;;;;;5073744;28;1379;-69
2022/12/13 14:05:47;;;;;;;;;;;18.30;58.50;;;;;;5077795;28;1970;-69
2022/12/13 14:08:16;;;;;;;;;;;18.30;58.50;;;;;;5076463;28;867;-69
2022/12/13 14:10:42;;;;;;;;;;;18.30;58.50;;;;;;5072445;28;1987;-69
2022/12/13 14:13:30;;;;;;;;;;;18.30;58.50;;;;;;5077394;28;1129;-69
2022/12/13 14:16:15;;;;;;;;;;;18.30;58.50;;;;;;5070479;28;1453;-69
2022/12/13 14:18:43;;;;;;;;;;;18.30;58.60;;;;;;5057800;28;1057;-69
2022/12/13 14:21:11;;;;;;;;;;;18.30;58.60;;;;;;5059958;28;1277;-68
2022/12/13 14:23:39;;;;;;;;;;;18.30;58.60;;;;;;5059905;28;1926;-68
2022/12/13 14:26:05;;;;;;;;;;;18.30;58.60;;;;;;5062115;28;822;-68
2022/12/13 14:28:57;;;;;;;;;;;18.30;58.70;;;;;;5062745;28;820;-68
2022/12/13 14:31:23;;;;;;;;;;;18.20;58.60;;;;;;5057571;28;1252;-68
2022/12/13 14:33:50;;;;;;;;;;;18.20;58.60;;;;;;5052335;28;1289;-69
2022/12/13 14:36:17;;;;;;;;;;;18.20;58.60;;;;;;5056307;28;2104;-69
2022/12/13 14:38:42;;;;;;;;;;;18.30;58.70;;;;;;5058740;28;1399;-68
2022/12/13 14:41:15;;;;;;;;;;;18.20;58.60;;;;;;5059321;28;1419;-69
2022/12/13 14:43:41;;;;;;;;;;;18.20;58.60;;;;;;5069199;28;1953;-69
2022/12/13 14:46:06;;;;;;;;;;;18.30;58.60;;;;;;5057998;28;906;-69